Weather History for Wildwood, NJ

Change the Weather History Date:

Sunday, February 16, 2014

  Actual Average Record
Temperature  
Mean Temperature 27 °F -  
Max Temperature 30 °F 42 °F 62 °F (2006)
Min Temperature 24 °F 29 °F 15 °F (2003)
Degree Days  
Heating Degree Days 38    
Moisture  
Dew Point 13 °F    
Average Humidity 53    
Maximum Humidity 64    
Minimum Humidity 47    
Precipitation  
Precipitation 0.01 in - - ()
Sea Level Pressure  
Sea Level Pressure 30.01 in    
Wind  
Wind Speed 12 mph (NW)    
Max Wind Speed 17 mph    
Max Gust Speed 30 mph    
Visibility 10 miles    
Events      
Averages and records for this station are not official NWS values.
T = Trace of Precipitation, MM = Missing Value Source: NWS Daily Summary

Daily Weather History Graph

Daily Weather History Graph

Search for Another Location

Airport:

Trip Planner

Search our weather history database for the weather conditions in past years. The results will help you decide how hot, cold, wet, or windy it might be!

Date:

Astronomy

Feb. 16, 2014 Rise Set
Actual Time 6:49 AM EST 5:38 PM EST
Civil Twilight 6:22 AM EST 6:05 PM EST
Nautical Twilight 5:51 AM EST 6:36 PM EST
Astronomical Twilight 5:20 AM EST 7:07 PM EST
Moon 7:31 PM EST (2/16) 7:19 AM EST (2/16)
Length of Visible Light 11h 42m
Length of Day
10h 48m
Full, 97% of the Moon is Illuminated
Feb 16
Full
Feb 22
Last Quarter
Mar 1
New
Mar 8
First Quarter
Mar 16
Full

Hourly Weather History & Observations

Time (EST) Temp. Windchill Dew Point Humidity Pressure Visibility Wind Dir Wind Speed Gust Speed Precip Events Conditions
12:15 AM 30.2 °F 18.5 °F 15.8 °F 55% 29.86 in 10.0 mi WNW 17.3 mph 29.9 mph N/A   Scattered Clouds
12:35 AM 30.2 °F 19.8 °F 15.8 °F 55% 29.87 in 10.0 mi NW 13.8 mph 26.5 mph N/A   Clear
12:55 AM 30.2 °F 19.8 °F 15.8 °F 55% 29.88 in 10.0 mi NW 13.8 mph 26.5 mph N/A   Clear
1:15 AM 30.2 °F 19.8 °F 15.8 °F 55% 29.89 in 10.0 mi NW 13.8 mph 27.6 mph N/A   Clear
1:35 AM 28.4 °F 16.6 °F 14.0 °F 55% 29.89 in 10.0 mi NW 16.1 mph 25.3 mph N/A   Clear
1:55 AM 28.4 °F 17.0 °F 12.2 °F 51% 29.90 in 10.0 mi WNW 15.0 mph 24.2 mph N/A   Clear
2:15 AM 28.4 °F 16.6 °F 12.2 °F 51% 29.90 in 10.0 mi NW 16.1 mph 24.2 mph N/A   Clear
2:35 AM 28.4 °F 17.5 °F 12.2 °F 51% 29.92 in 10.0 mi NW 13.8 mph 20.7 mph N/A   Clear
2:55 AM 28.4 °F 17.5 °F 10.4 °F 47% 29.93 in 10.0 mi NW 13.8 mph 23.0 mph N/A   Clear
3:15 AM 28.4 °F 18.0 °F 12.2 °F 51% 29.94 in 10.0 mi WNW 12.7 mph 23.0 mph N/A   Clear
3:35 AM 26.6 °F 14.7 °F 12.2 °F 55% 29.95 in 10.0 mi WNW 15.0 mph 24.2 mph N/A   Clear
3:55 AM 26.6 °F 16.2 °F 12.2 °F 55% 29.95 in 10.0 mi WNW 11.5 mph 19.6 mph N/A   Clear
4:15 AM 26.6 °F 16.2 °F 10.4 °F 51% 29.96 in 10.0 mi WNW 11.5 mph 21.9 mph N/A   Clear
4:35 AM 26.6 °F 15.2 °F 10.4 °F 51% 29.96 in 10.0 mi WNW 13.8 mph 23.0 mph N/A   Clear
4:55 AM 26.6 °F 15.2 °F 10.4 °F 51% 29.96 in 10.0 mi WNW 13.8 mph 21.9 mph N/A   Clear
5:15 AM 26.6 °F 15.2 °F 10.4 °F 51% 29.96 in 10.0 mi NW 13.8 mph 21.9 mph N/A   Clear
5:35 AM 26.6 °F 15.2 °F 12.2 °F 55% 29.96 in 10.0 mi NW 13.8 mph 19.6 mph N/A   Clear
5:55 AM 26.6 °F 15.7 °F 10.4 °F 51% 29.97 in 10.0 mi NW 12.7 mph 21.9 mph N/A   Clear
6:15 AM 26.6 °F 14.7 °F 10.4 °F 51% 29.97 in 10.0 mi NW 15.0 mph 19.6 mph N/A   Clear
6:35 AM 26.6 °F 17.5 °F 10.4 °F 51% 29.97 in 10.0 mi NW 9.2 mph 19.6 mph N/A   Clear
6:55 AM 24.8 °F 12.9 °F 8.6 °F 50% 29.98 in 10.0 mi NW 13.8 mph 18.4 mph N/A   Clear
7:15 AM 24.8 °F 14.0 °F 8.6 °F 50% 30.00 in 10.0 mi NW 11.5 mph 16.1 mph N/A   Clear
7:35 AM 24.8 °F 14.6 °F 10.4 °F 54% 30.01 in 10.0 mi NW 10.4 mph 19.6 mph N/A   Clear
7:55 AM 26.6 °F 18.2 °F 10.4 °F 51% 30.03 in 10.0 mi WNW 8.1 mph 17.3 mph N/A   Clear
8:15 AM 26.6 °F 17.5 °F 10.4 °F 51% 30.03 in 10.0 mi NW 9.2 mph 17.3 mph N/A   Clear
8:35 AM 26.6 °F 18.2 °F 12.2 °F 55% 30.03 in 10.0 mi WNW 8.1 mph - N/A   Clear
8:55 AM 26.6 °F 16.8 °F 10.4 °F 51% 30.03 in 10.0 mi WNW 10.4 mph 17.3 mph N/A   Clear
9:15 AM 26.6 °F 16.8 °F 10.4 °F 51% 30.04 in 10.0 mi NW 10.4 mph 20.7 mph N/A   Clear
9:35 AM 26.6 °F 16.8 °F 12.2 °F 55% 30.05 in 10.0 mi WNW 10.4 mph 17.3 mph N/A   Clear
9:55 AM 26.6 °F 19.1 °F 12.2 °F 55% 30.06 in 10.0 mi WNW 6.9 mph 16.1 mph N/A   Clear
10:15 AM 28.4 °F 19.7 °F 12.2 °F 51% 30.05 in 10.0 mi WNW 9.2 mph - N/A   Clear
10:35 AM 28.4 °F 18.5 °F 12.2 °F 51% 30.04 in 10.0 mi West 11.5 mph 18.4 mph N/A   Clear
10:55 AM 28.4 °F 18.0 °F 12.2 °F 51% 30.04 in 10.0 mi WNW 12.7 mph 17.3 mph N/A   Clear
11:15 AM 28.4 °F 19.1 °F 12.2 °F 51% 30.03 in 10.0 mi West 10.4 mph 18.4 mph N/A   Clear
11:35 AM 28.4 °F 18.0 °F 12.2 °F 51% 30.03 in 10.0 mi WNW 12.7 mph 18.4 mph N/A   Clear
11:55 AM 28.4 °F 18.0 °F 12.2 °F 51% 30.02 in 10.0 mi West 12.7 mph 18.4 mph N/A   Clear
12:15 PM 28.4 °F 18.0 °F 12.2 °F 51% 30.01 in 10.0 mi WNW 12.7 mph 17.3 mph N/A   Clear
12:35 PM 30.2 °F 21.3 °F 14.0 °F 51% 30.01 in 10.0 mi WNW 10.4 mph 16.1 mph N/A   Clear
12:55 PM 30.2 °F 20.8 °F 12.2 °F 47% 30.00 in 10.0 mi WNW 11.5 mph 18.4 mph N/A   Clear
1:15 PM 30.2 °F 21.3 °F 12.2 °F 47% 30.00 in 10.0 mi WNW 10.4 mph 18.4 mph N/A   Clear
1:35 PM 30.2 °F 21.3 °F 14.0 °F 51% 30.00 in 10.0 mi NW 10.4 mph 19.6 mph N/A   Clear
1:55 PM 30.2 °F 21.3 °F 14.0 °F 51% 30.00 in 10.0 mi WNW 10.4 mph 18.4 mph N/A   Clear
2:15 PM 30.2 °F 20.8 °F 14.0 °F 51% 29.99 in 10.0 mi WNW 11.5 mph - N/A   Clear
2:35 PM 30.2 °F 22.6 °F 14.0 °F 51% 29.99 in 10.0 mi NW 8.1 mph 16.1 mph N/A   Clear
2:55 PM 30.2 °F 22.6 °F 14.0 °F 51% 29.98 in 10.0 mi NNW 8.1 mph - N/A   Clear
3:15 PM 30.2 °F 21.3 °F 14.0 °F 51% 29.98 in 10.0 mi NW 10.4 mph - N/A   Clear
3:35 PM 30.2 °F 20.8 °F 12.2 °F 47% 29.98 in 10.0 mi NNW 11.5 mph - N/A   Clear
3:55 PM 30.2 °F 23.4 °F 14.0 °F 51% 29.98 in 10.0 mi NNW 6.9 mph - N/A   Clear
4:15 PM 30.2 °F 20.8 °F 12.2 °F 47% 29.99 in 10.0 mi WNW 11.5 mph - N/A   Clear
4:35 PM 30.2 °F 22.6 °F 12.2 °F 47% 30.01 in 10.0 mi NW 8.1 mph - N/A   Partly Cloudy
4:55 PM 30.2 °F 22.6 °F 12.2 °F 47% 30.01 in 10.0 mi NW 8.1 mph - N/A   Mostly Cloudy
5:15 PM 30.2 °F 24.3 °F 12.2 °F 47% 30.01 in 10.0 mi NW 5.8 mph - N/A   Overcast
5:35 PM 30.2 °F 25.4 °F 12.2 °F 47% 30.03 in 10.0 mi NW 4.6 mph - N/A   Overcast
5:55 PM 30.2 °F 24.3 °F 12.2 °F 47% 30.02 in 10.0 mi NW 5.8 mph - N/A   Overcast
6:15 PM 30.2 °F 23.4 °F 14.0 °F 51% 30.03 in 10.0 mi NW 6.9 mph - N/A   Overcast
6:35 PM 30.2 °F 24.3 °F 14.0 °F 51% 30.04 in 10.0 mi NNW 5.8 mph - N/A   Overcast
6:55 PM 30.2 °F 24.3 °F 14.0 °F 51% 30.05 in 10.0 mi NNW 5.8 mph - N/A   Overcast
7:15 PM 30.2 °F 24.3 °F 14.0 °F 51% 30.06 in 10.0 mi NNW 5.8 mph - N/A   Overcast
7:35 PM 30.2 °F 24.3 °F 14.0 °F 51% 30.06 in 10.0 mi NW 5.8 mph - N/A   Overcast
7:55 PM 30.2 °F 24.3 °F 14.0 °F 51% 30.07 in 10.0 mi NW 5.8 mph - N/A   Overcast
8:15 PM 30.2 °F 21.9 °F 17.6 °F 60% 30.08 in 10.0 mi NW 9.2 mph - N/A   Overcast
8:35 PM 30.2 °F 21.9 °F 17.6 °F 60% 30.09 in 10.0 mi NW 9.2 mph 16.1 mph N/A   Overcast
8:55 PM 30.2 °F 23.4 °F 17.6 °F 60% 30.09 in 10.0 mi WNW 6.9 mph - N/A   Overcast
9:15 PM 30.2 °F 21.9 °F 17.6 °F 60% 30.10 in 10.0 mi NNW 9.2 mph 17.3 mph N/A   Overcast
9:35 PM 30.2 °F 21.9 °F 15.8 °F 55% 30.11 in 10.0 mi NW 9.2 mph 16.1 mph N/A   Overcast
9:55 PM 30.2 °F 22.6 °F 15.8 °F 55% 30.12 in 10.0 mi NW 8.1 mph 17.3 mph N/A   Overcast
10:15 PM 28.4 °F 19.1 °F 15.8 °F 59% 30.12 in 10.0 mi NW 10.4 mph 20.7 mph N/A   Mostly Cloudy
10:35 PM 28.4 °F 19.7 °F 17.6 °F 64% 30.13 in 10.0 mi NW 9.2 mph - N/A   Clear
10:55 PM 28.4 °F 18.5 °F 15.8 °F 59% 30.14 in 10.0 mi NW 11.5 mph 16.1 mph N/A   Partly Cloudy
11:15 PM 28.4 °F 21.2 °F 15.8 °F 59% 30.14 in 10.0 mi NW 6.9 mph - N/A   Clear
11:35 PM 28.4 °F 20.4 °F 17.6 °F 64% 30.15 in 10.0 mi NW 8.1 mph - N/A   Clear
11:55 PM 28.4 °F 19.7 °F 17.6 °F 64% 30.16 in 10.0 mi WNW 9.2 mph 16.1 mph N/A   Clear